sensor_id;sensor_type;location;lat;lon;timestamp;P1;P2;P0
44933;PMS3003;30667;43.614;1.442;2024-02-15T00:00:16;2.40;2.00;0.00
44933;PMS3003;30667;43.614;1.442;2024-02-15T00:02:42;2.75;2.75;0.75
44933;PMS3003;30667;43.614;1.442;2024-02-15T00:05:09;3.00;3.00;1.00
44933;PMS3003;30667;43.614;1.442;2024-02-15T00:07:35;7.00;7.00;2.20
44933;PMS3003;30667;43.614;1.442;2024-02-15T00:10:01;3.00;3.00;1.00
44933;PMS3003;30667;43.614;1.442;2024-02-15T00:12:26;4.25;4.00;1.00
44933;PMS3003;30667;43.614;1.442;2024-02-15T00:14:52;5.25;4.00;1.00
44933;PMS3003;30667;43.614;1.442;2024-02-15T00:17:17;3.00;3.00;1.00
44933;PMS3003;30667;43.614;1.442;2024-02-15T00:19:43;5.50;3.75;1.00
44933;PMS3003;30667;43.614;1.442;2024-02-15T00:22:09;3.25;3.25;1.00
44933;PMS3003;30667;43.614;1.442;2024-02-15T00:24:36;6.00;4.00;1.00
44933;PMS3003;30667;43.614;1.442;2024-02-15T00:27:02;4.80;3.80;1.00
44933;PMS3003;30667;43.614;1.442;2024-02-15T00:29:28;3.25;3.25;1.00
44933;PMS3003;30667;43.614;1.442;2024-02-15T00:31:54;4.20;4.20;2.00
44933;PMS3003;30667;43.614;1.442;2024-02-15T00:34:20;10.20;8.00;3.00
44933;PMS3003;30667;43.614;1.442;2024-02-15T00:36:45;7.80;6.80;2.80
44933;PMS3003;30667;43.614;1.442;2024-02-15T00:39:11;3.50;3.50;1.00
44933;PMS3003;30667;43.614;1.442;2024-02-15T00:41:38;6.40;6.20;2.00
44933;PMS3003;30667;43.614;1.442;2024-02-15T00:44:08;4.00;3.00;1.20
44933;PMS3003;30667;43.614;1.442;2024-02-15T00:46:34;4.60;4.00;1.00
44933;PMS3003;30667;43.614;1.442;2024-02-15T00:48:59;6.60;5.20;2.00
44933;PMS3003;30667;43.614;1.442;2024-02-15T00:51:25;6.00;6.00;2.00
44933;PMS3003;30667;43.614;1.442;2024-02-15T00:53:50;6.50;6.00;3.00
44933;PMS3003;30667;43.614;1.442;2024-02-15T00:56:15;8.00;8.00;4.75
44933;PMS3003;30667;43.614;1.442;2024-02-15T00:58:41;5.00;4.75;2.00
44933;PMS3003;30667;43.614;1.442;2024-02-15T01:01:06;6.75;6.50;3.00
44933;PMS3003;30667;43.614;1.442;2024-02-15T01:03:32;6.25;6.00;3.00
44933;PMS3003;30667;43.614;1.442;2024-02-15T01:05:57;5.50;5.50;2.00
44933;PMS3003;30667;43.614;1.442;2024-02-15T01:08:22;8.00;7.75;3.00
44933;PMS3003;30667;43.614;1.442;2024-02-15T01:10:48;7.50;6.25;2.50
44933;PMS3003;30667;43.614;1.442;2024-02-15T01:13:13;6.00;6.00;2.00
44933;PMS3003;30667;43.614;1.442;2024-02-15T01:15:39;8.00;6.50;2.75
44933;PMS3003;30667;43.614;1.442;2024-02-15T01:18:06;8.00;6.00;2.00
44933;PMS3003;30667;43.614;1.442;2024-02-15T01:20:31;8.00;7.50;2.25
44933;PMS3003;30667;43.614;1.442;2024-02-15T01:22:57;7.00;6.00;2.50
44933;PMS3003;30667;43.614;1.442;2024-02-15T01:25:22;8.25;8.00;2.75
44933;PMS3003;30667;43.614;1.442;2024-02-15T01:27:47;7.00;7.00;3.00
44933;PMS3003;30667;43.614;1.442;2024-02-15T01:30:13;8.00;7.25;3.25
44933;PMS3003;30667;43.614;1.442;2024-02-15T01:32:39;7.50;6.50;2.00
44933;PMS3003;30667;43.614;1.442;2024-02-15T01:35:07;7.80;7.00;3.00
44933;PMS3003;30667;43.614;1.442;2024-02-15T01:37:32;9.00;9.00;3.60
44933;PMS3003;30667;43.614;1.442;2024-02-15T01:39:58;7.25;6.50;2.75
44933;PMS3003;30667;43.614;1.442;2024-02-15T01:42:23;8.25;7.00;3.00
44933;PMS3003;30667;43.614;1.442;2024-02-15T01:44:49;7.25;6.75;3.00
44933;PMS3003;30667;43.614;1.442;2024-02-15T01:47:16;11.00;8.75;3.00
44933;PMS3003;30667;43.614;1.442;2024-02-15T01:49:43;9.80;7.80;3.00
44933;PMS3003;30667;43.614;1.442;2024-02-15T01:52:08;9.25;8.00;3.75
44933;PMS3003;30667;43.614;1.442;2024-02-15T01:54:34;9.40;8.00;4.00
44933;PMS3003;30667;43.614;1.442;2024-02-15T01:57:01;9.40;8.40;3.80
44933;PMS3003;30667;43.614;1.442;2024-02-15T01:59:28;11.40;9.60;5.80
44933;PMS3003;30667;43.614;1.442;2024-02-15T02:01:54;9.00;9.00;4.00
44933;PMS3003;30667;43.614;1.442;2024-02-15T02:04:19;9.25;9.00;6.00
44933;PMS3003;30667;43.614;1.442;2024-02-15T02:06:45;7.25;7.25;3.00
44933;PMS3003;30667;43.614;1.442;2024-02-15T02:09:11;11.25;10.50;5.50
44933;PMS3003;30667;43.614;1.442;2024-02-15T02:11:44;7.60;7.00;2.60
44933;PMS3003;30667;43.614;1.442;2024-02-15T02:14:11;9.80;8.00;3.00
44933;PMS3003;30667;43.614;1.442;2024-02-15T02:16:37;8.00;7.80;4.00
44933;PMS3003;30667;43.614;1.442;2024-02-15T02:19:04;8.40;8.20;4.00
44933;PMS3003;30667;43.614;1.442;2024-02-15T02:21:33;10.80;9.00;6.00
44933;PMS3003;30667;43.614;1.442;2024-02-15T02:24:00;9.60;9.60;6.00
44933;PMS3003;30667;43.614;1.442;2024-02-15T02:26:33;8.80;7.00;3.00
44933;PMS3003;30667;43.614;1.442;2024-02-15T02:28:59;6.40;6.00;2.40
44933;PMS3003;30667;43.614;1.442;2024-02-15T02:31:25;7.25;6.75;3.00
44933;PMS3003;30667;43.614;1.442;2024-02-15T02:33:53;9.00;8.75;4.00
44933;PMS3003;30667;43.614;1.442;2024-02-15T02:36:19;9.00;8.00;4.40
44933;PMS3003;30667;43.614;1.442;2024-02-15T02:38:45;7.00;4.80;2.00
44933;PMS3003;30667;43.614;1.442;2024-02-15T02:41:11;9.20;8.00;3.00
44933;PMS3003;30667;43.614;1.442;2024-02-15T02:43:40;8.80;7.80;4.00
44933;PMS3003;30667;43.614;1.442;2024-02-15T02:46:05;8.75;8.75;3.25
44933;PMS3003;30667;43.614;1.442;2024-02-15T02:48:31;6.00;6.00;2.00
44933;PMS3003;30667;43.614;1.442;2024-02-15T02:50:57;8.25;7.00;2.50
44933;PMS3003;30667;43.614;1.442;2024-02-15T02:53:23;4.00;4.00;2.00
44933;PMS3003;30667;43.614;1.442;2024-02-15T02:55:49;6.00;4.40;2.00
44933;PMS3003;30667;43.614;1.442;2024-02-15T02:58:14;7.20;7.00;3.00
44933;PMS3003;30667;43.614;1.442;2024-02-15T03:00:40;9.00;8.00;3.50
44933;PMS3003;30667;43.614;1.442;2024-02-15T03:03:05;6.00;6.00;2.25
44933;PMS3003;30667;43.614;1.442;2024-02-15T03:05:31;3.00;3.00;1.00
44933;PMS3003;30667;43.614;1.442;2024-02-15T03:07:56;3.25;3.00;0.75
44933;PMS3003;30667;43.614;1.442;2024-02-15T03:10:22;6.00;6.00;3.00
44933;PMS3003;30667;43.614;1.442;2024-02-15T03:12:49;6.60;6.00;2.00
44933;PMS3003;30667;43.614;1.442;2024-02-15T03:15:15;4.00;3.50;1.00
44933;PMS3003;30667;43.614;1.442;2024-02-15T03:17:41;5.20;4.00;2.00
44933;PMS3003;30667;43.614;1.442;2024-02-15T03:20:08;3.00;3.00;1.00
44933;PMS3003;30667;43.614;1.442;2024-02-15T03:22:54;7.00;6.40;3.00
44933;PMS3003;30667;43.614;1.442;2024-02-15T03:25:20;6.00;6.00;1.20
44933;PMS3003;30667;43.614;1.442;2024-02-15T03:27:48;3.00;3.00;1.00
44933;PMS3003;30667;43.614;1.442;2024-02-15T03:30:16;6.40;6.00;2.20
44933;PMS3003;30667;43.614;1.442;2024-02-15T03:32:42;7.00;7.00;3.75
44933;PMS3003;30667;43.614;1.442;2024-02-15T03:35:07;3.00;3.00;1.00
44933;PMS3003;30667;43.614;1.442;2024-02-15T03:37:33;3.75;3.75;1.00
44933;PMS3003;30667;43.614;1.442;2024-02-15T03:40:02;4.00;4.00;2.00
44933;PMS3003;30667;43.614;1.442;2024-02-15T03:42:29;5.60;4.00;2.00
44933;PMS3003;30667;43.614;1.442;2024-02-15T03:44:55;3.00;3.00;1.00
44933;PMS3003;30667;43.614;1.442;2024-02-15T03:47:20;7.75;6.50;3.00
44933;PMS3003;30667;43.614;1.442;2024-02-15T03:49:46;6.25;5.00;1.50
44933;PMS3003;30667;43.614;1.442;2024-02-15T03:52:12;6.00;4.00;1.80
44933;PMS3003;30667;43.614;1.442;2024-02-15T03:54:37;3.25;3.25;1.00
44933;PMS3003;30667;43.614;1.442;2024-02-15T03:57:03;5.75;4.75;2.50
44933;PMS3003;30667;43.614;1.442;2024-02-15T03:59:31;8.00;7.40;3.00
44933;PMS3003;30667;43.614;1.442;2024-02-15T04:01:57;8.20;7.80;3.80
44933;PMS3003;30667;43.614;1.442;2024-02-15T04:04:23;6.25;6.25;2.00
44933;PMS3003;30667;43.614;1.442;2024-02-15T04:06:48;7.00;6.00;3.00
44933;PMS3003;30667;43.614;1.442;2024-02-15T04:09:15;10.00;8.60;3.80
44933;PMS3003;30667;43.614;1.442;2024-02-15T04:11:42;7.80;7.00;3.00
44933;PMS3003;30667;43.614;1.442;2024-02-15T04:14:09;7.20;7.00;3.00
44933;PMS3003;30667;43.614;1.442;2024-02-15T04:16:34;8.25;8.25;3.50
44933;PMS3003;30667;43.614;1.442;2024-02-15T04:19:00;6.80;4.80;2.00
44933;PMS3003;30667;43.614;1.442;2024-02-15T04:21:26;11.00;7.75;4.00
44933;PMS3003;30667;43.614;1.442;2024-02-15T04:23:52;13.40;10.60;3.60
44933;PMS3003;30667;43.614;1.442;2024-02-15T04:26:19;8.00;8.00;4.00
44933;PMS3003;30667;43.614;1.442;2024-02-15T04:28:45;8.80;7.20;3.60
44933;PMS3003;30667;43.614;1.442;2024-02-15T04:31:17;9.80;8.40;5.60
44933;PMS3003;30667;43.614;1.442;2024-02-15T04:33:42;7.50;6.75;2.50
44933;PMS3003;30667;43.614;1.442;2024-02-15T04:36:08;8.50;8.50;3.00
44933;PMS3003;30667;43.614;1.442;2024-02-15T04:38:33;8.00;7.00;3.00
44933;PMS3003;30667;43.614;1.442;2024-02-15T04:41:00;3.40;3.40;1.80
44933;PMS3003;30667;43.614;1.442;2024-02-15T04:43:27;7.00;7.00;3.00
44933;PMS3003;30667;43.614;1.442;2024-02-15T04:45:52;7.50;7.00;3.00
44933;PMS3003;30667;43.614;1.442;2024-02-15T04:48:18;7.75;7.00;2.75
44933;PMS3003;30667;43.614;1.442;2024-02-15T04:50:44;6.00;4.00;2.00
44933;PMS3003;30667;43.614;1.442;2024-02-15T04:53:10;6.00;4.00;1.75
44933;PMS3003;30667;43.614;1.442;2024-02-15T04:55:36;5.40;4.80;2.00
44933;PMS3003;30667;43.614;1.442;2024-02-15T04:58:01;8.00;7.75;2.75
44933;PMS3003;30667;43.614;1.442;2024-02-15T05:00:27;5.50;5.50;2.00
44933;PMS3003;30667;43.614;1.442;2024-02-15T05:02:53;10.60;7.00;2.60
44933;PMS3003;30667;43.614;1.442;2024-02-15T05:05:19;6.00;6.00;2.00
44933;PMS3003;30667;43.614;1.442;2024-02-15T05:07:45;6.00;5.00;2.00
44933;PMS3003;30667;43.614;1.442;2024-02-15T05:10:10;7.00;7.00;3.00
44933;PMS3003;30667;43.614;1.442;2024-02-15T05:12:37;6.80;6.80;2.00
44933;PMS3003;30667;43.614;1.442;2024-02-15T05:15:05;6.40;6.00;2.60
44933;PMS3003;30667;43.614;1.442;2024-02-15T05:17:36;8.00;6.00;2.60
44933;PMS3003;30667;43.614;1.442;2024-02-15T05:20:02;6.00;6.00;2.00
44933;PMS3003;30667;43.614;1.442;2024-02-15T05:22:35;6.40;5.60;3.00
44933;PMS3003;30667;43.614;1.442;2024-02-15T05:25:01;3.80;3.40;1.00
44933;PMS3003;30667;43.614;1.442;2024-02-15T05:27:30;6.00;6.00;2.00
44933;PMS3003;30667;43.614;1.442;2024-02-15T05:29:56;6.80;6.80;3.00
44933;PMS3003;30667;43.614;1.442;2024-02-15T05:32:21;6.00;4.00;2.00
44933;PMS3003;30667;43.614;1.442;2024-02-15T05:34:47;7.75;7.00;3.00
44933;PMS3003;30667;43.614;1.442;2024-02-15T05:37:13;6.75;5.50;1.75
44933;PMS3003;30667;43.614;1.442;2024-02-15T05:39:41;6.20;4.80;2.00
44933;PMS3003;30667;43.614;1.442;2024-02-15T05:42:06;4.00;3.75;2.00
44933;PMS3003;30667;43.614;1.442;2024-02-15T05:44:32;8.00;7.20;2.00
44933;PMS3003;30667;43.614;1.442;2024-02-15T05:46:59;4.60;4.00;2.00
44933;PMS3003;30667;43.614;1.442;2024-02-15T05:49:25;4.75;4.75;2.00
44933;PMS3003;30667;43.614;1.442;2024-02-15T05:51:50;6.00;5.75;1.25
44933;PMS3003;30667;43.614;1.442;2024-02-15T05:54:16;7.25;6.00;2.00
44933;PMS3003;30667;43.614;1.442;2024-02-15T05:56:42;8.00;7.00;3.00
44933;PMS3003;30667;43.614;1.442;2024-02-15T05:59:08;8.00;7.00;2.00
44933;PMS3003;30667;43.614;1.442;2024-02-15T06:01:35;6.60;5.80;3.00
44933;PMS3003;30667;43.614;1.442;2024-02-15T06:04:04;6.60;5.80;2.00
44933;PMS3003;30667;43.614;1.442;2024-02-15T06:06:33;3.00;3.00;0.80
44933;PMS3003;30667;43.614;1.442;2024-02-15T06:08:59;4.80;4.80;2.00
44933;PMS3003;30667;43.614;1.442;2024-02-15T06:11:25;4.00;4.00;2.00
44933;PMS3003;30667;43.614;1.442;2024-02-15T06:13:51;3.00;3.00;1.00
44933;PMS3003;30667;43.614;1.442;2024-02-15T06:16:16;4.00;3.50;1.50
44933;PMS3003;30667;43.614;1.442;2024-02-15T06:18:42;6.00;6.00;2.00
44933;PMS3003;30667;43.614;1.442;2024-02-15T06:21:07;4.00;4.00;1.00
44933;PMS3003;30667;43.614;1.442;2024-02-15T06:23:33;7.00;6.80;1.60
44933;PMS3003;30667;43.614;1.442;2024-02-15T06:26:00;3.00;3.00;1.00
44933;PMS3003;30667;43.614;1.442;2024-02-15T06:28:27;3.20;3.20;1.40
44933;PMS3003;30667;43.614;1.442;2024-02-15T06:31:11;5.40;4.00;1.80
44933;PMS3003;30667;43.614;1.442;2024-02-15T06:33:55;6.80;6.60;3.20
44933;PMS3003;30667;43.614;1.442;2024-02-15T06:36:40;5.80;5.80;2.00
44933;PMS3003;30667;43.614;1.442;2024-02-15T06:39:30;7.80;6.00;2.40
44933;PMS3003;30667;43.614;1.442;2024-02-15T06:42:12;7.00;5.80;2.60
44933;PMS3003;30667;43.614;1.442;2024-02-15T06:44:45;6.60;6.20;3.00
44933;PMS3003;30667;43.614;1.442;2024-02-15T06:47:11;7.60;6.80;2.00
44933;PMS3003;30667;43.614;1.442;2024-02-15T06:49:37;4.00;3.75;1.25
44933;PMS3003;30667;43.614;1.442;2024-02-15T06:52:09;3.20;3.20;1.00
44933;PMS3003;30667;43.614;1.442;2024-02-15T06:54:37;3.80;3.40;1.20
44933;PMS3003;30667;43.614;1.442;2024-02-15T06:57:03;4.40;3.80;1.40
44933;PMS3003;30667;43.614;1.442;2024-02-15T06:59:29;5.00;5.00;2.00
44933;PMS3003;30667;43.614;1.442;2024-02-15T07:01:56;4.80;4.80;2.00
44933;PMS3003;30667;43.614;1.442;2024-02-15T07:04:22;4.40;4.00;2.20
44933;PMS3003;30667;43.614;1.442;2024-02-15T07:06:50;4.00;4.00;1.20
44933;PMS3003;30667;43.614;1.442;2024-02-15T07:09:19;9.60;9.20;4.80
44933;PMS3003;30667;43.614;1.442;2024-02-15T07:11:45;6.60;4.80;2.00
44933;PMS3003;30667;43.614;1.442;2024-02-15T07:14:11;4.80;4.00;2.00
44933;PMS3003;30667;43.614;1.442;2024-02-15T07:16:37;4.00;4.00;1.40
44933;PMS3003;30667;43.614;1.442;2024-02-15T07:19:03;4.25;4.25;2.00
44933;PMS3003;30667;43.614;1.442;2024-02-15T07:21:28;4.00;4.00;1.75
44933;PMS3003;30667;43.614;1.442;2024-02-15T07:23:55;4.50;4.25;2.00
44933;PMS3003;30667;43.614;1.442;2024-02-15T07:26:24;5.60;4.40;1.40
44933;PMS3003;30667;43.614;1.442;2024-02-15T07:28:55;8.00;8.00;3.40
44933;PMS3003;30667;43.614;1.442;2024-02-15T07:31:22;7.40;5.60;2.00
44933;PMS3003;30667;43.614;1.442;2024-02-15T07:33:51;4.00;4.00;1.00
44933;PMS3003;30667;43.614;1.442;2024-02-15T07:36:20;4.80;4.40;1.80
44933;PMS3003;30667;43.614;1.442;2024-02-15T07:38:49;7.60;6.60;2.00
44933;PMS3003;30667;43.614;1.442;2024-02-15T07:41:22;4.40;4.40;2.00
44933;PMS3003;30667;43.614;1.442;2024-02-15T07:43:48;5.80;5.40;2.00
44933;PMS3003;30667;43.614;1.442;2024-02-15T07:46:14;5.40;4.60;2.00
44933;PMS3003;30667;43.614;1.442;2024-02-15T07:48:41;4.00;4.00;1.00
44933;PMS3003;30667;43.614;1.442;2024-02-15T07:51:10;4.20;4.20;1.20
44933;PMS3003;30667;43.614;1.442;2024-02-15T07:53:37;4.60;4.00;2.00
44933;PMS3003;30667;43.614;1.442;2024-02-15T07:56:02;5.50;4.50;1.25
44933;PMS3003;30667;43.614;1.442;2024-02-15T07:58:28;7.00;6.75;3.00
44933;PMS3003;30667;43.614;1.442;2024-02-15T08:00:53;4.75;4.75;3.00
44933;PMS3003;30667;43.614;1.442;2024-02-15T08:03:18;6.25;5.00;2.00
44933;PMS3003;30667;43.614;1.442;2024-02-15T08:05:44;4.50;4.00;1.75
44933;PMS3003;30667;43.614;1.442;2024-02-15T08:08:09;5.00;5.00;2.00
44933;PMS3003;30667;43.614;1.442;2024-02-15T08:10:34;3.50;3.50;2.00
44933;PMS3003;30667;43.614;1.442;2024-02-15T08:13:00;5.00;4.75;1.75
44933;PMS3003;30667;43.614;1.442;2024-02-15T08:15:25;4.50;4.50;2.00
44933;PMS3003;30667;43.614;1.442;2024-02-15T08:17:52;2.40;2.40;1.00
44933;PMS3003;30667;43.614;1.442;2024-02-15T08:20:20;3.00;3.00;1.00
44933;PMS3003;30667;43.614;1.442;2024-02-15T08:22:46;2.80;2.80;0.40
44933;PMS3003;30667;43.614;1.442;2024-02-15T08:25:12;5.00;5.00;2.00
44933;PMS3003;30667;43.614;1.442;2024-02-15T08:27:41;4.80;4.00;1.00
44933;PMS3003;30667;43.614;1.442;2024-02-15T08:30:11;5.00;5.00;2.40
44933;PMS3003;30667;43.614;1.442;2024-02-15T08:32:38;4.60;4.60;2.00
44933;PMS3003;30667;43.614;1.442;2024-02-15T08:35:07;7.20;5.20;2.00
44933;PMS3003;30667;43.614;1.442;2024-02-15T08:37:34;5.00;5.00;2.00
44933;PMS3003;30667;43.614;1.442;2024-02-15T08:40:01;7.80;6.20;2.80
44933;PMS3003;30667;43.614;1.442;2024-02-15T08:42:36;4.80;4.00;2.00
44933;PMS3003;30667;43.614;1.442;2024-02-15T08:45:03;3.00;3.00;1.20
44933;PMS3003;30667;43.614;1.442;2024-02-15T08:47:29;4.00;4.00;1.50
44933;PMS3003;30667;43.614;1.442;2024-02-15T08:49:55;4.60;4.40;2.00
44933;PMS3003;30667;43.614;1.442;2024-02-15T08:52:21;3.00;3.00;1.00
44933;PMS3003;30667;43.614;1.442;2024-02-15T08:54:46;2.00;2.00;1.00
44933;PMS3003;30667;43.614;1.442;2024-02-15T08:57:11;3.00;2.00;1.00
44933;PMS3003;30667;43.614;1.442;2024-02-15T08:59:38;4.20;3.60;1.00
44933;PMS3003;30667;43.614;1.442;2024-02-15T09:02:04;4.00;4.00;2.00
44933;PMS3003;30667;43.614;1.442;2024-02-15T09:04:30;4.60;4.40;1.00
44933;PMS3003;30667;43.614;1.442;2024-02-15T09:06:56;4.25;3.50;1.50
44933;PMS3003;30667;43.614;1.442;2024-02-15T09:09:21;4.00;4.00;2.00
44933;PMS3003;30667;43.614;1.442;2024-02-15T09:11:47;4.00;4.00;2.00
44933;PMS3003;30667;43.614;1.442;2024-02-15T09:14:12;5.00;4.75;1.75
44933;PMS3003;30667;43.614;1.442;2024-02-15T09:16:38;4.50;4.50;2.00
44933;PMS3003;30667;43.614;1.442;2024-02-15T09:19:04;4.00;4.00;1.80
44933;PMS3003;30667;43.614;1.442;2024-02-15T09:21:31;3.00;3.00;1.00
44933;PMS3003;30667;43.614;1.442;2024-02-15T09:23:58;5.20;4.00;1.00
44933;PMS3003;30667;43.614;1.442;2024-02-15T09:26:24;5.20;4.80;2.00
44933;PMS3003;30667;43.614;1.442;2024-02-15T09:28:50;5.50;5.00;2.00
44933;PMS3003;30667;43.614;1.442;2024-02-15T09:31:15;3.75;3.75;2.00
44933;PMS3003;30667;43.614;1.442;2024-02-15T09:33:41;4.75;3.75;2.00
44933;PMS3003;30667;43.614;1.442;2024-02-15T09:36:06;6.25;5.00;2.00
44933;PMS3003;30667;43.614;1.442;2024-02-15T09:38:31;5.75;4.50;2.00
44933;PMS3003;30667;43.614;1.442;2024-02-15T09:40:58;3.80;3.00;1.20
44933;PMS3003;30667;43.614;1.442;2024-02-15T09:43:24;5.00;5.00;2.00
44933;PMS3003;30667;43.614;1.442;2024-02-15T09:45:51;6.00;5.40;2.40
44933;PMS3003;30667;43.614;1.442;2024-02-15T09:48:19;4.00;3.00;0.60
44933;PMS3003;30667;43.614;1.442;2024-02-15T09:50:49;4.20;4.00;1.00
44933;PMS3003;30667;43.614;1.442;2024-02-15T09:53:20;3.60;3.40;1.40
44933;PMS3003;30667;43.614;1.442;2024-02-15T09:55:47;5.00;5.00;2.00
44933;PMS3003;30667;43.614;1.442;2024-02-15T09:58:13;3.20;3.20;1.00
44933;PMS3003;30667;43.614;1.442;2024-02-15T10:00:40;5.00;5.00;2.80
44933;PMS3003;30667;43.614;1.442;2024-02-15T10:03:05;5.00;4.50;2.25
44933;PMS3003;30667;43.614;1.442;2024-02-15T10:05:32;4.80;4.80;2.00
44933;PMS3003;30667;43.614;1.442;2024-02-15T10:07:57;5.75;5.00;2.50
44933;PMS3003;30667;43.614;1.442;2024-02-15T10:10:27;4.00;4.00;2.00
44933;PMS3003;30667;43.614;1.442;2024-02-15T10:12:53;5.60;5.00;1.80
44933;PMS3003;30667;43.614;1.442;2024-02-15T10:17:59;5.20;5.20;2.60
44933;PMS3003;30667;43.614;1.442;2024-02-15T10:20:28;5.80;5.20;2.40
44933;PMS3003;30667;43.614;1.442;2024-02-15T10:25:29;11.00;8.80;4.00
44933;PMS3003;30667;43.614;1.442;2024-02-15T10:28:14;8.20;6.00;4.00
44933;PMS3003;30667;43.614;1.442;2024-02-15T10:30:45;4.20;4.20;1.20
44933;PMS3003;30667;43.614;1.442;2024-02-15T10:33:19;5.20;5.20;2.00
44933;PMS3003;30667;43.614;1.442;2024-02-15T10:35:50;7.60;6.40;3.00
44933;PMS3003;30667;43.614;1.442;2024-02-15T10:38:33;4.80;4.00;2.00
44933;PMS3003;30667;43.614;1.442;2024-02-15T10:41:05;5.50;4.75;2.00
44933;PMS3003;30667;43.614;1.442;2024-02-15T10:43:35;5.40;4.80;2.00
44933;PMS3003;30667;43.614;1.442;2024-02-15T10:46:04;4.60;4.00;1.00
44933;PMS3003;30667;43.614;1.442;2024-02-15T10:48:32;3.20;3.20;1.60
44933;PMS3003;30667;43.614;1.442;2024-02-15T10:50:59;4.00;4.00;1.00
44933;PMS3003;30667;43.614;1.442;2024-02-15T10:53:27;3.80;2.80;1.00
44933;PMS3003;30667;43.614;1.442;2024-02-15T10:58:34;4.00;3.80;1.00
44933;PMS3003;30667;43.614;1.442;2024-02-15T11:01:09;4.40;4.00;2.00
44933;PMS3003;30667;43.614;1.442;2024-02-15T11:04:20;5.00;4.60;2.00
44933;PMS3003;30667;43.614;1.442;2024-02-15T11:06:30;4.80;3.00;1.00
44933;PMS3003;30667;43.614;1.442;2024-02-15T11:09:00;5.20;5.00;2.00
44933;PMS3003;30667;43.614;1.442;2024-02-15T11:11:31;2.00;2.00;0.60
44933;PMS3003;30667;43.614;1.442;2024-02-15T11:17:12;6.80;5.00;2.00
44933;PMS3003;30667;43.614;1.442;2024-02-15T11:20:10;5.00;5.00;2.80
44933;PMS3003;30667;43.614;1.442;2024-02-15T11:22:56;11.20;9.00;4.00
44933;PMS3003;30667;43.614;1.442;2024-02-15T11:25:35;7.20;5.20;1.60
44933;PMS3003;30667;43.614;1.442;2024-02-15T11:30:48;5.00;4.00;1.80
44933;PMS3003;30667;43.614;1.442;2024-02-15T11:36:12;7.40;6.00;3.20
44933;PMS3003;30667;43.614;1.442;2024-02-15T11:38:38;44.40;36.40;24.80
44933;PMS3003;30667;43.614;1.442;2024-02-15T11:41:10;83.60;65.00;41.60
44933;PMS3003;30667;43.614;1.442;2024-02-15T11:46:11;215.40;172.60;105.00
44933;PMS3003;30667;43.614;1.442;2024-02-15T11:48:40;149.80;123.60;74.60
44933;PMS3003;30667;43.614;1.442;2024-02-15T11:51:08;115.25;89.25;56.00
44933;PMS3003;30667;43.614;1.442;2024-02-15T11:53:36;84.00;62.20;39.00
44933;PMS3003;30667;43.614;1.442;2024-02-15T11:56:02;94.40;77.80;50.60
44933;PMS3003;30667;43.614;1.442;2024-02-15T11:58:34;79.40;60.20;38.40
44933;PMS3003;30667;43.614;1.442;2024-02-15T12:01:17;42.40;35.20;21.00
44933;PMS3003;30667;43.614;1.442;2024-02-15T12:04:01;45.00;37.00;22.80
44933;PMS3003;30667;43.614;1.442;2024-02-15T12:06:46;41.60;36.00;22.00
44933;PMS3003;30667;43.614;1.442;2024-02-15T12:09:29;54.25;42.75;27.50
44933;PMS3003;30667;43.614;1.442;2024-02-15T12:12:13;50.00;40.00;24.25
44933;PMS3003;30667;43.614;1.442;2024-02-15T12:15:01;75.60;58.20;36.40
44933;PMS3003;30667;43.614;1.442;2024-02-15T12:17:45;78.20;56.60;36.00
44933;PMS3003;30667;43.614;1.442;2024-02-15T12:20:29;86.60;66.60;42.00
44933;PMS3003;30667;43.614;1.442;2024-02-15T12:22:57;75.60;56.60;35.80
44933;PMS3003;30667;43.614;1.442;2024-02-15T12:25:25;50.50;40.50;25.75
44933;PMS3003;30667;43.614;1.442;2024-02-15T12:27:54;86.25;67.75;40.75
44933;PMS3003;30667;43.614;1.442;2024-02-15T12:30:21;85.20;67.00;40.80
44933;PMS3003;30667;43.614;1.442;2024-02-15T12:32:48;66.75;51.50;33.00
44933;PMS3003;30667;43.614;1.442;2024-02-15T12:35:14;61.25;47.75;30.75
44933;PMS3003;30667;43.614;1.442;2024-02-15T12:37:49;84.80;64.40;39.80
44933;PMS3003;30667;43.614;1.442;2024-02-15T12:40:34;52.00;39.75;26.00
44933;PMS3003;30667;43.614;1.442;2024-02-15T12:43:01;58.50;45.00;28.50
44933;PMS3003;30667;43.614;1.442;2024-02-15T12:45:30;59.00;47.00;29.75
44933;PMS3003;30667;43.614;1.442;2024-02-15T12:47:56;64.75;49.75;31.00
44933;PMS3003;30667;43.614;1.442;2024-02-15T12:50:23;61.50;47.00;28.75
44933;PMS3003;30667;43.614;1.442;2024-02-15T12:52:55;68.25;50.50;32.00
44933;PMS3003;30667;43.614;1.442;2024-02-15T12:55:24;34.20;29.80;19.60
44933;PMS3003;30667;43.614;1.442;2024-02-15T12:57:51;78.25;56.75;35.75
44933;PMS3003;30667;43.614;1.442;2024-02-15T13:00:21;27.40;24.20;14.20
44933;PMS3003;30667;43.614;1.442;2024-02-15T13:02:48;20.80;14.60;9.40
44933;PMS3003;30667;43.614;1.442;2024-02-15T13:05:15;31.20;27.20;17.00
44933;PMS3003;30667;43.614;1.442;2024-02-15T13:07:43;73.50;54.00;34.00
44933;PMS3003;30667;43.614;1.442;2024-02-15T13:10:09;67.25;49.75;31.75
44933;PMS3003;30667;43.614;1.442;2024-02-15T13:12:35;71.25;54.75;34.50
44933;PMS3003;30667;43.614;1.442;2024-02-15T13:15:03;60.25;45.50;27.50
44933;PMS3003;30667;43.614;1.442;2024-02-15T13:17:29;31.00;27.20;17.40
44933;PMS3003;30667;43.614;1.442;2024-02-15T13:19:55;57.75;46.00;30.25
44933;PMS3003;30667;43.614;1.442;2024-02-15T13:22:28;59.50;47.50;29.75
44933;PMS3003;30667;43.614;1.442;2024-02-15T13:24:57;48.50;39.00;24.25
44933;PMS3003;30667;43.614;1.442;2024-02-15T13:27:22;56.00;45.00;28.00
44933;PMS3003;30667;43.614;1.442;2024-02-15T13:29:49;62.50;48.00;30.25
44933;PMS3003;30667;43.614;1.442;2024-02-15T13:32:14;49.80;37.60;23.20
44933;PMS3003;30667;43.614;1.442;2024-02-15T13:34:41;46.20;36.20;23.80
44933;PMS3003;30667;43.614;1.442;2024-02-15T13:37:07;13.00;10.75;5.50
44933;PMS3003;30667;43.614;1.442;2024-02-15T13:39:32;22.25;19.75;10.75
44933;PMS3003;30667;43.614;1.442;2024-02-15T13:42:01;25.25;21.00;13.00
44933;PMS3003;30667;43.614;1.442;2024-02-15T13:44:26;36.20;31.20;17.20
44933;PMS3003;30667;43.614;1.442;2024-02-15T13:46:52;28.00;25.50;14.75
44933;PMS3003;30667;43.614;1.442;2024-02-15T13:49:20;35.40;30.00;19.60
44933;PMS3003;30667;43.614;1.442;2024-02-15T13:51:46;32.00;27.20;15.40
44933;PMS3003;30667;43.614;1.442;2024-02-15T13:54:11;35.50;31.50;17.00
44933;PMS3003;30667;43.614;1.442;2024-02-15T13:56:37;44.33;35.67;22.33
44933;PMS3003;30667;43.614;1.442;2024-02-15T13:59:04;39.20;26.60;15.00
44933;PMS3003;30667;43.614;1.442;2024-02-15T14:01:30;23.40;20.40;11.80
44933;PMS3003;30667;43.614;1.442;2024-02-15T14:03:56;33.25;27.50;16.75
44933;PMS3003;30667;43.614;1.442;2024-02-15T14:06:21;39.25;31.75;20.50
44933;PMS3003;30667;43.614;1.442;2024-02-15T14:08:46;42.75;35.25;20.50
44933;PMS3003;30667;43.614;1.442;2024-02-15T14:11:12;37.50;32.50;20.00
44933;PMS3003;30667;43.614;1.442;2024-02-15T14:13:37;27.75;22.25;12.75
44933;PMS3003;30667;43.614;1.442;2024-02-15T14:16:03;33.50;30.25;18.50
44933;PMS3003;30667;43.614;1.442;2024-02-15T14:18:30;47.60;35.40;20.60
44933;PMS3003;30667;43.614;1.442;2024-02-15T14:20:56;32.00;26.25;15.25
44933;PMS3003;30667;43.614;1.442;2024-02-15T14:23:21;43.00;34.00;20.50
44933;PMS3003;30667;43.614;1.442;2024-02-15T14:25:46;31.50;28.25;18.75
44933;PMS3003;30667;43.614;1.442;2024-02-15T14:28:13;29.40;26.20;16.20
44933;PMS3003;30667;43.614;1.442;2024-02-15T14:30:39;29.75;27.75;16.75
44933;PMS3003;30667;43.614;1.442;2024-02-15T14:33:23;34.00;28.20;17.00
44933;PMS3003;30667;43.614;1.442;2024-02-15T14:35:49;20.00;19.00;12.25